Time,TemperatureF,DewpointF,PressureIn,WindDirection,WindDirectionDegrees,WindSpeedMPH,WindSpeedGustMPH,Humidity,HourlyPrecipIn,Conditions,Clouds,dailyrainin,SoftwareType,DateUTC
2013-01-09 00:08:00,22.5,22.3,30.31,NNE,22,0.0,-999.0,99,-99.99,,,0.00,Acu-Link.com,2013-01-09 05:08:00,
2013-01-09 00:23:00,22.1,21.9,30.30,East,90,0.0,-999.0,99,-99.99,,,0.00,Acu-Link.com,2013-01-09 05:23:00,
2013-01-09 00:38:00,22.1,21.9,30.30,ESE,112,0.0,-999.0,99,-99.99,,,0.00,Acu-Link.com,2013-01-09 05:38:00,
2013-01-09 00:53:00,21.6,21.4,30.30,NNE,22,0.0,-999.0,99,-99.99,,,0.00,Acu-Link.com,2013-01-09 05:53:00,
2013-01-09 01:08:00,21.6,21.4,30.30,NE,45,0.0,-999.0,99,-99.99,,,0.00,Acu-Link.com,2013-01-09 06:08:00,
2013-01-09 01:24:00,21.7,21.5,30.30,ENE,67,0.0,-999.0,99,-99.99,,,0.00,Acu-Link.com,2013-01-09 06:24:00,
2013-01-09 01:39:00,21.2,21.0,30.30,NW,315,0.0,-999.0,99,-99.99,,,0.00,Acu-Link.com,2013-01-09 06:39:00,
2013-01-09 01:54:00,20.8,20.6,30.30,ESE,112,0.0,-999.0,99,-99.99,,,0.00,Acu-Link.com,2013-01-09 06:54:00,
2013-01-09 02:09:00,21.2,21.0,30.30,NNW,337,0.0,-999.0,99,-99.99,,,0.00,Acu-Link.com,2013-01-09 07:09:00,
2013-01-09 02:24:00,20.5,20.3,30.30,ESE,112,0.0,-999.0,99,-99.99,,,0.00,Acu-Link.com,2013-01-09 07:24:00,
2013-01-09 02:39:00,20.3,20.1,30.31,NE,45,0.0,-999.0,99,-99.99,,,0.00,Acu-Link.com,2013-01-09 07:39:00,
2013-01-09 02:54:00,20.3,20.1,30.30,NE,45,0.0,-999.0,99,-99.99,,,0.00,Acu-Link.com,2013-01-09 07:54:00,
2013-01-09 03:09:00,20.5,20.3,30.29,NNW,337,0.0,-999.0,99,-99.99,,,0.00,Acu-Link.com,2013-01-09 08:09:00,
2013-01-09 03:24:00,20.7,20.5,30.29,SE,135,0.0,-999.0,99,-99.99,,,0.00,Acu-Link.com,2013-01-09 08:24:00,
2013-01-09 03:40:00,20.5,20.3,30.28,NNW,337,0.0,-999.0,99,-99.99,,,0.00,Acu-Link.com,2013-01-09 08:40:00,
2013-01-09 03:55:00,20.5,20.3,30.28,ENE,67,0.0,-999.0,99,-99.99,,,0.00,Acu-Link.com,2013-01-09 08:55:00,
2013-01-09 04:11:00,20.5,20.3,30.28,NNW,337,0.0,-999.0,99,-99.99,,,0.00,Acu-Link.com,2013-01-09 09:11:00,
2013-01-09 04:27:00,20.3,20.1,30.28,NW,315,0.0,-999.0,99,-99.99,,,0.00,Acu-Link.com,2013-01-09 09:27:00,
2013-01-09 04:42:00,20.3,20.1,30.28,North,0,0.0,-999.0,99,-99.99,,,0.00,Acu-Link.com,2013-01-09 09:42:00,
2013-01-09 04:57:00,20.3,20.1,30.28,NE,45,0.0,-999.0,99,-99.99,,,0.00,Acu-Link.com,2013-01-09 09:57:00,
2013-01-09 05:12:00,20.3,20.1,30.27,NNE,22,0.0,-999.0,99,-99.99,,,0.00,Acu-Link.com,2013-01-09 10:12:00,
2013-01-09 05:27:00,19.9,19.7,30.27,NE,45,0.0,-999.0,99,-99.99,,,0.00,Acu-Link.com,2013-01-09 10:27:00,
2013-01-09 05:42:00,19.9,19.7,30.27,NE,45,0.0,-999.0,99,-99.99,,,0.00,Acu-Link.com,2013-01-09 10:42:00,
2013-01-09 05:57:00,19.6,19.1,30.27,ENE,67,0.0,-999.0,98,-99.99,,,0.00,Acu-Link.com,2013-01-09 10:57:00,
2013-01-09 06:12:00,19.4,18.9,30.27,ENE,67,0.0,-999.0,98,-99.99,,,0.00,Acu-Link.com,2013-01-09 11:12:00,
2013-01-09 06:28:00,19.2,19.0,30.27,NW,315,0.0,-999.0,99,-99.99,,,0.00,Acu-Link.com,2013-01-09 11:28:00,
2013-01-09 06:43:00,19.0,18.8,30.28,East,90,0.0,-999.0,99,-99.99,,,0.00,Acu-Link.com,2013-01-09 11:43:00,
2013-01-09 06:58:00,19.6,19.4,30.27,East,90,0.0,-999.0,99,-99.99,,,0.00,Acu-Link.com,2013-01-09 11:58:00,
2013-01-09 07:13:00,19.4,18.9,30.26,SE,135,0.0,-999.0,98,-99.99,,,0.00,Acu-Link.com,2013-01-09 12:13:00,
2013-01-09 07:28:00,19.4,18.9,30.26,East,90,0.0,-999.0,98,-99.99,,,0.00,Acu-Link.com,2013-01-09 12:28:00,
2013-01-09 07:43:00,19.4,19.2,30.26,SE,135,0.0,-999.0,99,-99.99,,,0.00,Acu-Link.com,2013-01-09 12:43:00,
2013-01-09 07:58:00,19.9,19.4,30.26,West,270,0.0,-999.0,98,-99.99,,,0.00,Acu-Link.com,2013-01-09 12:58:00,
2013-01-09 08:13:00,20.7,20.2,30.25,ESE,112,0.0,-999.0,98,-99.99,,,0.00,Acu-Link.com,2013-01-09 13:13:00,
2013-01-09 08:28:00,21.4,20.9,30.24,ESE,112,0.0,-999.0,98,-99.99,,,0.00,Acu-Link.com,2013-01-09 13:28:00,
2013-01-09 08:44:00,22.5,21.5,30.26,ESE,112,0.0,-999.0,96,-99.99,,,0.00,Acu-Link.com,2013-01-09 13:44:00,
2013-01-09 08:59:00,23.2,22.2,30.27,SSE,157,0.0,-999.0,96,-99.99,,,0.00,Acu-Link.com,2013-01-09 13:59:00,
2013-01-09 09:14:00,23.7,22.5,30.25,SSE,157,0.0,-999.0,95,-99.99,,,0.00,Acu-Link.com,2013-01-09 14:14:00,
2013-01-09 09:29:00,24.6,23.1,30.26,ESE,112,0.0,-999.0,94,-99.99,,,0.00,Acu-Link.com,2013-01-09 14:29:00,
2013-01-09 09:44:00,24.8,23.1,30.26,ESE,112,2.7,-999.0,93,-99.99,,,0.00,Acu-Link.com,2013-01-09 14:44:00,
2013-01-09 09:59:00,24.8,23.1,30.25,SSE,157,0.0,-999.0,93,-99.99,,,0.00,Acu-Link.com,2013-01-09 14:59:00,
2013-01-09 10:14:00,25.3,23.3,30.24,East,90,1.1,-999.0,92,-99.99,,,0.00,Acu-Link.com,2013-01-09 15:14:00,
2013-01-09 10:29:00,27.0,24.2,30.22,South,180,1.7,-999.0,89,-99.99,,,0.00,Acu-Link.com,2013-01-09 15:29:00,
2013-01-09 10:44:00,27.3,25.0,30.23,ESE,112,0.0,-999.0,91,-99.99,,,0.00,Acu-Link.com,2013-01-09 15:44:00,
2013-01-09 11:00:00,28.0,24.9,30.24,SE,135,0.0,-999.0,88,-99.99,,,0.00,Acu-Link.com,2013-01-09 16:00:00,
2013-01-09 11:15:00,28.6,25.2,30.23,SE,135,0.0,-999.0,87,-99.99,,,0.00,Acu-Link.com,2013-01-09 16:15:00,
2013-01-09 11:30:00,28.8,24.9,30.22,SSE,157,0.0,-999.0,85,-99.99,,,0.00,Acu-Link.com,2013-01-09 16:30:00,
2013-01-09 11:45:00,28.8,25.7,30.19,ESE,112,2.2,-999.0,88,-99.99,,,0.00,Acu-Link.com,2013-01-09 16:45:00,
2013-01-09 12:00:00,29.1,25.7,30.15,West,270,3.7,-999.0,87,-99.99,,,0.00,Acu-Link.com,2013-01-09 17:00:00,
2013-01-09 12:15:00,29.5,25.6,30.14,SSE,157,2.2,-999.0,85,-99.99,,,0.00,Acu-Link.com,2013-01-09 17:15:00,
2013-01-09 12:30:00,29.3,25.4,30.12,SSE,157,3.2,-999.0,85,-99.99,,,0.00,Acu-Link.com,2013-01-09 17:30:00,
2013-01-09 12:45:00,29.8,25.9,30.13,SSE,157,2.7,-999.0,85,-99.99,,,0.00,Acu-Link.com,2013-01-09 17:45:00,
2013-01-09 13:00:00,29.5,25.8,30.12,WSW,247,1.7,-999.0,86,-99.99,,,0.00,Acu-Link.com,2013-01-09 18:00:00,
2013-01-09 13:16:00,29.3,25.6,30.11,ESE,112,2.7,-999.0,86,-99.99,,,0.00,Acu-Link.com,2013-01-09 18:16:00,
2013-01-09 13:31:00,29.7,25.8,30.11,South,180,1.7,-999.0,85,-99.99,,,0.00,Acu-Link.com,2013-01-09 18:31:00,
2013-01-09 14:01:00,30.9,26.4,30.11,SE,135,1.7,-999.0,83,-99.99,,,0.00,Acu-Link.com,2013-01-09 19:01:00,
2013-01-09 14:16:00,31.6,26.7,30.10,ENE,67,3.2,-999.0,82,-99.99,,,0.00,Acu-Link.com,2013-01-09 19:16:00,
2013-01-09 14:47:00,36.5,30.0,30.08,SE,135,0.0,-999.0,77,-99.99,,,0.00,Acu-Link.com,2013-01-09 19:47:00,
2013-01-09 16:46:00,38.1,30.2,30.07,ESE,112,2.7,-999.0,73,-99.99,,,0.00,Acu-Link.com,2013-01-09 21:46:00,
2013-01-09 17:09:00,32.5,27.9,30.08,SSE,157,1.7,-999.0,83,-99.99,,,0.00,Acu-Link.com,2013-01-09 22:09:00,
2013-01-09 17:30:00,30.9,27.2,30.10,West,270,2.7,-999.0,86,-99.99,,,0.00,Acu-Link.com,2013-01-09 22:30:00,
2013-01-09 17:46:00,29.8,26.7,30.11,SSE,157,0.0,-999.0,88,-99.99,,,0.00,Acu-Link.com,2013-01-09 22:46:00,
2013-01-09 18:02:00,28.9,26.6,30.12,NW,315,2.7,-999.0,91,-99.99,,,0.00,Acu-Link.com,2013-01-09 23:02:00,
2013-01-09 18:17:00,28.6,26.8,30.12,NE,45,2.7,-999.0,93,-99.99,,,0.00,Acu-Link.com,2013-01-09 23:17:00,
2013-01-09 18:32:00,28.4,26.4,30.13,NNE,22,0.0,-999.0,92,-99.99,,,0.00,Acu-Link.com,2013-01-09 23:32:00,
2013-01-09 18:47:00,28.0,26.5,30.15,NNW,337,4.2,-999.0,94,-99.99,,,0.00,Acu-Link.com,2013-01-09 23:47:00,
2013-01-09 19:02:00,27.9,26.4,30.15,ESE,112,2.7,-999.0,94,-99.99,,,0.00,Acu-Link.com,2013-01-10 00:02:00,
2013-01-09 19:22:00,28.6,27.1,30.15,WNW,292,4.7,-999.0,94,-99.99,,,0.00,Acu-Link.com,2013-01-10 00:22:00,
2013-01-09 19:37:00,29.3,28.3,30.15,East,90,1.1,-999.0,96,-99.99,,,0.00,Acu-Link.com,2013-01-10 00:37:00,
2013-01-09 19:53:00,31.1,28.2,30.15,East,90,2.2,-999.0,89,-99.99,,,0.00,Acu-Link.com,2013-01-10 00:53:00,
2013-01-09 20:44:00,37.2,30.7,30.17,NE,45,2.7,-999.0,77,-99.99,,,0.00,Acu-Link.com,2013-01-10 01:44:00,
2013-01-09 21:00:00,39.2,30.3,30.18,WNW,292,2.7,-999.0,70,-99.99,,,0.00,Acu-Link.com,2013-01-10 02:00:00,
2013-01-09 21:16:00,38.5,29.9,30.18,NE,45,2.7,-999.0,71,-99.99,,,0.00,Acu-Link.com,2013-01-10 02:16:00,
2013-01-09 21:31:00,36.7,29.2,30.20,WNW,292,4.2,-999.0,74,-99.99,,,0.00,Acu-Link.com,2013-01-10 02:31:00,
2013-01-09 21:47:00,37.8,29.3,30.20,ENE,67,1.7,-999.0,71,-99.99,,,0.00,Acu-Link.com,2013-01-10 02:47:00,
2013-01-09 22:03:00,37.8,29.3,30.21,NE,45,0.0,-999.0,71,-99.99,,,0.00,Acu-Link.com,2013-01-10 03:03:00,
2013-01-09 22:19:00,39.0,27.9,30.21,NE,45,3.7,-999.0,64,-99.99,,,0.00,Acu-Link.com,2013-01-10 03:19:00,
2013-01-09 22:34:00,39.2,27.3,30.23,ENE,67,3.2,-999.0,62,-99.99,,,0.00,Acu-Link.com,2013-01-10 03:34:00,
2013-01-09 22:50:00,39.4,27.1,30.23,West,270,3.7,-999.0,61,-99.99,,,0.00,Acu-Link.com,2013-01-10 03:50:00,
2013-01-09 23:05:00,41.0,26.9,30.24,East,90,2.7,-999.0,57,-99.99,,,0.00,Acu-Link.com,2013-01-10 04:05:00,
2013-01-09 23:20:00,41.0,26.5,30.24,West,270,8.3,-999.0,56,-99.99,,,0.00,Acu-Link.com,2013-01-10 04:20:00,
2013-01-09 23:35:00,41.2,26.7,30.25,SW,225,8.3,-999.0,56,-99.99,,,0.00,Acu-Link.com,2013-01-10 04:35:00,
2013-01-09 23:50:00,41.2,26.3,30.25,ENE,67,6.3,-999.0,55,-99.99,,,0.00,Acu-Link.com,2013-01-10 04:50:00,